createdAt,value
2023-05-17T00:01:16.937Z,98854.09
2023-05-17T00:04:01.832Z,98858.25
2023-05-17T00:06:47.138Z,98854.91
2023-05-17T00:09:32.017Z,98854.66
2023-05-17T00:12:16.806Z,98850.78
2023-05-17T00:15:01.392Z,98854.97
2023-05-17T00:17:46.618Z,98856.81
2023-05-17T00:20:31.410Z,98850.84
2023-05-17T00:23:16.466Z,98852.66
2023-05-17T00:26:01.324Z,98854.22
2023-05-17T00:28:45.995Z,98857.06
2023-05-17T00:31:32.650Z,98859.16
2023-05-17T00:34:17.566Z,98859.94
2023-05-17T00:37:02.641Z,98846.94
2023-05-17T00:39:50.624Z,98851.38
2023-05-17T00:42:35.178Z,98843.56
2023-05-17T00:45:20.013Z,98847.78
2023-05-17T00:48:05.170Z,98842.56
2023-05-17T00:50:53.493Z,98844.09
2023-05-17T00:53:38.513Z,98853.47
2023-05-17T00:56:23.565Z,98844.88
2023-05-17T00:59:08.491Z,98843.84
2023-05-17T01:01:54.063Z,98841.25
2023-05-17T01:04:39.338Z,98841.25
2023-05-17T01:07:24.706Z,98833.47
2023-05-17T01:10:10.157Z,98843.56
2023-05-17T01:13:15.661Z,98841.47
2023-05-17T01:16:23.760Z,98839.16
2023-05-17T01:19:41.204Z,98840.69
2023-05-17T01:22:47.166Z,98838.09
2023-05-17T01:25:45.198Z,98844.88
2023-05-17T01:28:31.314Z,98848.03
2023-05-17T01:31:17.010Z,98841.81
2023-05-17T01:34:07.391Z,98842.09
2023-05-17T01:36:53.078Z,98834.81
2023-05-17T01:39:38.060Z,98837.97
2023-05-17T01:42:29.122Z,98837.47
2023-05-17T01:45:40.496Z,98836.47
2023-05-17T01:48:34.359Z,98832.81
2023-05-17T01:51:20.360Z,98838.59
2023-05-17T01:54:11.523Z,98833.66
2023-05-17T01:57:01.442Z,98831.03
2023-05-17T01:59:49.217Z,98836.53
2023-05-17T02:02:33.964Z,98834.47
2023-05-17T02:05:19.359Z,98835.50
2023-05-17T02:08:04.807Z,98833.44
2023-05-17T02:10:49.436Z,98838.63
2023-05-17T02:13:34.449Z,98838.13
2023-05-17T02:16:19.652Z,98835.53
2023-05-17T02:19:04.442Z,98831.63
2023-05-17T02:21:50.933Z,98833.47
2023-05-17T02:24:35.952Z,98827.75
2023-05-17T02:27:21.954Z,98827.75
2023-05-17T02:30:07.737Z,98838.44
2023-05-17T02:32:53.274Z,98842.03
2023-05-17T02:35:38.174Z,98834.25
2023-05-17T02:38:24.250Z,98836.84
2023-05-17T02:41:09.176Z,98837.63
2023-05-17T02:43:54.095Z,98837.38
2023-05-17T02:46:39.148Z,98831.63
2023-05-17T02:49:24.011Z,98834.00
2023-05-17T02:52:08.926Z,98832.69
2023-05-17T02:54:54.330Z,98839.41
2023-05-17T02:57:39.342Z,98835.25
2023-05-17T03:00:24.412Z,98841.94
2023-05-17T03:03:09.919Z,98844.78
2023-05-17T03:06:00.088Z,98850.22
2023-05-17T03:08:45.408Z,98840.84
2023-05-17T03:11:31.480Z,98846.78
2023-05-17T03:14:16.448Z,98844.94
2023-05-17T03:17:01.620Z,98846.22
2023-05-17T03:19:47.044Z,98834.50
2023-05-17T03:22:31.859Z,98842.53
2023-05-17T03:25:17.929Z,98838.63
2023-05-17T03:28:03.064Z,98843.53
2023-05-17T03:30:48.308Z,98841.72
2023-05-17T03:33:33.860Z,98839.91
2023-05-17T03:36:19.095Z,98847.41
2023-05-17T03:39:04.129Z,98837.00
2023-05-17T03:41:50.410Z,98841.94
2023-05-17T03:44:35.515Z,98841.94
2023-05-17T03:47:23.284Z,98844.03
2023-05-17T03:50:09.487Z,98852.34
2023-05-17T03:52:54.824Z,98847.91
2023-05-17T03:55:39.684Z,98851.28
2023-05-17T03:58:24.784Z,98846.81
2023-05-17T04:01:09.788Z,98855.38
2023-05-17T04:03:55.024Z,98858.22
2023-05-17T04:06:41.454Z,98855.03
2023-05-17T04:09:26.620Z,98858.38
2023-05-17T04:12:11.816Z,98862.25
2023-05-17T04:14:57.240Z,98862.78
2023-05-17T04:17:42.862Z,98879.16
2023-05-17T04:20:28.392Z,98877.63
2023-05-17T04:23:13.533Z,98888.56
2023-05-17T04:25:58.458Z,98894.00
2023-05-17T04:28:43.705Z,98892.25
2023-05-17T04:31:31.682Z,98893.84
2023-05-17T04:34:16.953Z,98897.22
2023-05-17T04:37:03.491Z,98904.75
2023-05-17T04:39:48.951Z,98902.13
2023-05-17T04:42:34.218Z,98905.75
2023-05-17T04:45:19.225Z,98902.09
2023-05-17T04:48:04.619Z,98897.16
2023-05-17T04:50:51.404Z,98896.34
2023-05-17T04:53:36.559Z,98895.28
2023-05-17T04:56:28.643Z,98898.59
2023-05-17T04:59:14.345Z,98899.91
2023-05-17T05:01:59.287Z,98894.13
2023-05-17T05:04:44.368Z,98899.84
2023-05-17T05:07:30.783Z,98889.88
2023-05-17T05:10:16.518Z,98897.31
2023-05-17T05:13:02.031Z,98894.88
2023-05-17T05:15:46.837Z,98893.25
2023-05-17T05:18:34.105Z,98889.53
2023-05-17T05:21:19.425Z,98898.84
2023-05-17T05:24:05.850Z,98902.94
2023-05-17T05:26:51.066Z,98896.34
2023-05-17T05:30:03.597Z,98904.69
2023-05-17T05:32:53.274Z,98886.63
2023-05-17T05:35:38.772Z,98896.53
2023-05-17T05:38:23.697Z,98897.72
2023-05-17T05:41:08.730Z,98890.47
2023-05-17T05:43:56.325Z,98911.78
2023-05-17T05:46:43.873Z,98908.34
2023-05-17T05:49:28.927Z,98918.31
2023-05-17T05:52:16.600Z,98912.16
2023-05-17T05:55:02.124Z,98918.53
2023-05-17T05:57:50.735Z,98914.28
2023-05-17T06:00:36.684Z,98922.50
2023-05-17T06:03:23.973Z,98916.88
2023-05-17T06:06:10.910Z,98915.91
2023-05-17T06:08:59.471Z,98925.75
2023-05-17T06:11:45.050Z,98919.53
2023-05-17T06:14:32.974Z,98925.97
2023-05-17T06:17:23.505Z,98932.69
2023-05-17T06:20:09.130Z,98941.03
2023-05-17T06:23:00.595Z,98932.41
2023-05-17T06:25:49.285Z,98935.31
2023-05-17T06:28:34.582Z,98943.59
2023-05-17T06:31:21.237Z,98938.44
2023-05-17T06:34:06.766Z,98942.06
2023-05-17T06:36:52.325Z,98930.41
2023-05-17T06:39:51.514Z,98957.47
2023-05-17T06:42:45.194Z,98953.13
2023-05-17T06:45:31.695Z,98949.69
2023-05-17T06:48:29.132Z,98958.50
2023-05-17T06:51:15.575Z,98967.13
2023-05-17T06:54:04.639Z,98959.97
2023-05-17T06:56:52.273Z,98964.72
2023-05-17T06:59:37.592Z,98978.03
2023-05-17T07:02:44.848Z,98970.88
2023-05-17T07:05:36.228Z,98968.16
2023-05-17T07:08:31.229Z,98960.31
2023-05-17T07:11:33.025Z,98965.31
2023-05-17T07:14:18.247Z,98962.13
2023-05-17T07:17:05.934Z,98967.88
2023-05-17T07:19:51.725Z,98970.97
2023-05-17T07:22:37.316Z,98972.22
2023-05-17T07:25:22.876Z,98955.28
2023-05-17T07:28:26.037Z,98967.41
2023-05-17T07:31:11.110Z,98959.59
2023-05-17T07:33:56.151Z,98961.09
2023-05-17T07:36:40.970Z,98974.19
2023-05-17T07:39:26.690Z,98959.41
2023-05-17T07:42:16.012Z,98960.50
2023-05-17T07:45:02.999Z,98958.66
2023-05-17T07:47:48.325Z,98968.41
2023-05-17T07:50:33.696Z,98965.59
2023-05-17T07:53:24.267Z,98972.69
2023-05-17T07:56:14.511Z,98969.81
2023-05-17T07:59:00.453Z,98971.59
2023-05-17T08:01:47.483Z,98957.25
2023-05-17T08:04:32.517Z,98966.44
2023-05-17T08:07:19.496Z,98968.78
2023-05-17T08:10:05.102Z,98966.50
2023-05-17T08:12:53.154Z,98961.06
2023-05-17T08:15:38.462Z,98968.19
2023-05-17T08:18:47.004Z,98969.31
2023-05-17T08:21:32.522Z,98973.38
2023-05-17T08:24:18.546Z,98975.44
2023-05-17T08:27:25.706Z,98973.44
2023-05-17T08:30:52.220Z,98973.88
2023-05-17T08:34:01.859Z,98963.81
2023-05-17T08:36:49.705Z,98962.38
2023-05-17T08:39:39.771Z,98974.22
2023-05-17T08:42:25.322Z,98981.53
2023-05-17T08:45:22.964Z,98967.44
2023-05-17T08:48:12.520Z,98969.66
2023-05-17T08:51:07.903Z,98980.56
2023-05-17T08:53:53.080Z,98976.38
2023-05-17T08:56:43.464Z,98979.09
2023-05-17T08:59:39.774Z,98981.22
2023-05-17T09:02:31.237Z,98984.41
2023-05-17T09:05:21.742Z,98982.56
2023-05-17T09:08:39.687Z,98994.97
2023-05-17T09:11:40.199Z,99007.19
2023-05-17T09:14:26.373Z,98994.78
2023-05-17T09:17:19.031Z,98997.50
2023-05-17T09:20:05.577Z,98994.66
2023-05-17T09:23:10.167Z,98996.72
2023-05-17T09:26:04.764Z,98994.31
2023-05-17T09:28:49.944Z,99005.94
2023-05-17T09:31:35.462Z,99004.91
2023-05-17T09:34:20.697Z,99007.81
2023-05-17T09:37:23.966Z,98993.97
2023-05-17T09:40:14.864Z,99010.25
2023-05-17T09:43:01.349Z,99009.41
2023-05-17T09:45:56.216Z,99021.34
2023-05-17T09:48:43.359Z,99008.53
2023-05-17T09:51:42.065Z,99024.19
2023-05-17T09:54:31.577Z,99014.91
2023-05-17T09:57:17.009Z,99009.75
2023-05-17T10:00:09.085Z,99020.28
2023-05-17T10:02:54.646Z,99022.50
2023-05-17T10:05:44.187Z,99022.06
2023-05-17T10:08:31.365Z,99022.56
2023-05-17T10:11:18.058Z,99012.63
2023-05-17T10:14:29.175Z,99017.44
2023-05-17T10:17:16.872Z,99010.50
2023-05-17T10:20:06.335Z,99017.50
2023-05-17T10:23:06.185Z,99004.31
2023-05-17T10:26:02.433Z,99014.34
2023-05-17T10:28:51.837Z,99019.50
2023-05-17T10:31:36.953Z,99016.41
2023-05-17T10:34:22.767Z,99015.47
2023-05-17T10:37:07.996Z,99017.59
2023-05-17T10:39:56.950Z,99013.34
2023-05-17T10:42:46.409Z,99021.72
2023-05-17T10:45:31.682Z,99008.22
2023-05-17T10:48:18.839Z,99013.00
2023-05-17T10:51:07.662Z,99014.63
2023-05-17T10:54:18.195Z,99011.31
2023-05-17T10:57:08.781Z,99016.06
2023-05-17T11:00:06.947Z,99017.03
2023-05-17T11:03:17.585Z,99018.25
2023-05-17T11:06:24.045Z,99018.63
2023-05-17T11:09:22.496Z,99025.13
2023-05-17T11:12:12.137Z,99019.03
2023-05-17T11:14:58.177Z,99018.22
2023-05-17T11:17:51.368Z,99021.28
2023-05-17T11:20:37.489Z,99014.63
2023-05-17T11:23:26.548Z,99017.91
2023-05-17T11:26:33.450Z,99013.53
2023-05-17T11:29:18.589Z,99015.16
2023-05-17T11:32:08.424Z,99023.41
2023-05-17T11:34:54.305Z,99019.66
2023-05-17T11:37:43.483Z,99029.50
2023-05-17T11:40:28.921Z,99031.47
2023-05-17T11:43:22.844Z,99019.31
2023-05-17T11:46:18.897Z,99019.91
2023-05-17T11:49:06.683Z,99026.13
2023-05-17T11:51:53.243Z,99032.13
2023-05-17T11:54:39.771Z,99029.53
2023-05-17T11:57:36.649Z,99028.41
2023-05-17T12:00:32.904Z,99027.72
2023-05-17T12:03:22.449Z,99035.25
2023-05-17T12:06:10.919Z,99043.09
2023-05-17T12:08:56.403Z,99048.41
2023-05-17T12:11:41.905Z,99037.97
2023-05-17T12:14:27.146Z,99039.16
2023-05-17T12:17:22.283Z,99030.09
2023-05-17T12:20:08.611Z,99030.75
2023-05-17T12:22:54.941Z,99026.25
2023-05-17T12:25:40.163Z,99018.06
2023-05-17T12:28:24.912Z,99032.13
2023-05-17T12:31:14.069Z,99025.53
2023-05-17T12:34:01.681Z,99027.28
2023-05-17T12:36:48.083Z,99024.81
2023-05-17T12:39:34.602Z,99024.53
2023-05-17T12:42:22.119Z,99028.25
2023-05-17T12:45:08.435Z,99025.97
2023-05-17T12:47:53.274Z,99028.94
2023-05-17T12:50:43.906Z,99021.97
2023-05-17T12:53:36.182Z,99036.53
2023-05-17T12:56:23.401Z,99028.03
2023-05-17T12:59:16.485Z,99026.56
2023-05-17T13:02:02.101Z,99027.47
2023-05-17T13:04:47.332Z,99015.63
2023-05-17T13:07:32.244Z,99004.06
2023-05-17T13:10:27.912Z,99016.22
2023-05-17T13:13:23.898Z,99013.53
2023-05-17T13:16:09.044Z,99012.84
2023-05-17T13:18:55.108Z,99022.69
2023-05-17T13:21:40.674Z,99023.50
2023-05-17T13:24:27.859Z,99024.94
2023-05-17T13:27:13.208Z,99017.53
2023-05-17T13:29:57.989Z,99025.06
2023-05-17T13:32:44.121Z,99025.50
2023-05-17T13:35:31.675Z,99035.75
2023-05-17T13:38:16.368Z,99029.19
2023-05-17T13:41:01.333Z,99035.84
2023-05-17T13:43:46.362Z,99041.88
2023-05-17T13:46:31.754Z,99029.97
2023-05-17T13:49:17.288Z,99034.84
2023-05-17T13:52:03.068Z,99041.53
2023-05-17T13:54:47.966Z,99041.91
2023-05-17T13:57:33.072Z,99043.44
2023-05-17T14:00:18.540Z,99046.97
2023-05-17T14:03:03.487Z,99048.81
2023-05-17T14:05:50.393Z,99045.41
2023-05-17T14:08:35.356Z,99048.34
2023-05-17T14:11:20.965Z,99050.91
2023-05-17T14:14:06.126Z,99055.78
2023-05-17T14:16:51.189Z,99037.28
2023-05-17T14:19:36.309Z,99053.94
2023-05-17T14:22:21.850Z,99052.25
2023-05-17T14:25:07.822Z,99041.72
2023-05-17T14:27:53.001Z,99046.66
2023-05-17T14:30:37.801Z,99058.84
2023-05-17T14:33:22.868Z,99067.41
2023-05-17T14:36:08.150Z,99058.22
2023-05-17T14:38:53.115Z,99054.63
2023-05-17T14:41:38.768Z,99045.97
2023-05-17T14:44:24.334Z,99054.53
2023-05-17T14:47:09.582Z,99052.47
2023-05-17T14:49:54.596Z,99055.72
2023-05-17T14:52:39.466Z,99060.03
2023-05-17T14:55:26.357Z,99061.69
2023-05-17T14:58:14.288Z,99061.13
2023-05-17T15:01:05.726Z,99059.81
2023-05-17T15:03:52.277Z,99049.94
2023-05-17T15:06:38.352Z,99061.97
2023-05-17T15:09:23.661Z,99059.56
2023-05-17T15:12:12.401Z,99059.69
2023-05-17T15:14:58.762Z,99057.56
2023-05-17T15:17:44.042Z,99054.31
2023-05-17T15:20:29.401Z,99065.63
2023-05-17T15:23:15.260Z,99065.75
2023-05-17T15:26:00.285Z,99069.41
2023-05-17T15:28:45.272Z,99068.63
2023-05-17T15:31:30.089Z,99067.00
2023-05-17T15:34:15.272Z,99060.16
2023-05-17T15:37:00.528Z,99068.13
2023-05-17T15:39:45.926Z,99065.09
2023-05-17T15:42:32.656Z,99065.84
2023-05-17T15:45:20.976Z,99070.66
2023-05-17T15:48:06.197Z,99056.72
2023-05-17T15:50:51.856Z,99050.53
2023-05-17T15:53:37.298Z,99054.22
2023-05-17T15:56:22.882Z,99051.13
2023-05-17T15:59:08.008Z,99047.53
2023-05-17T16:01:52.983Z,99038.94
2023-05-17T16:04:37.979Z,99045.72
2023-05-17T16:07:25.680Z,99046.50
2023-05-17T16:10:10.709Z,99035.34
2023-05-17T16:12:55.436Z,99040.53
2023-05-17T16:15:41.017Z,99043.88
2023-05-17T16:18:26.374Z,99031.41
2023-05-17T16:21:11.541Z,99036.63
2023-05-17T16:23:56.709Z,99043.34
2023-05-17T16:26:41.703Z,99036.34
2023-05-17T16:29:26.903Z,99037.91
2023-05-17T16:32:11.941Z,99033.22
2023-05-17T16:34:56.903Z,99036.59
2023-05-17T16:37:42.917Z,99034.22
2023-05-17T16:40:28.318Z,99034.22
2023-05-17T16:43:15.469Z,99031.13
2023-05-17T16:46:00.735Z,99024.13
2023-05-17T16:48:45.643Z,99027.22
2023-05-17T16:51:30.898Z,99029.03
2023-05-17T16:54:15.745Z,99026.19
2023-05-17T16:57:06.546Z,99026.69
2023-05-17T16:59:54.580Z,99027.22
2023-05-17T17:02:39.971Z,99033.47
2023-05-17T17:05:25.742Z,99026.72
2023-05-17T17:08:14.069Z,99024.94
2023-05-17T17:10:59.160Z,99026.75
2023-05-17T17:13:44.027Z,99027.50
2023-05-17T17:16:29.478Z,99022.84
2023-05-17T17:19:14.864Z,99030.38
2023-05-17T17:22:00.163Z,99026.50
2023-05-17T17:24:44.901Z,99033.78
2023-05-17T17:27:30.086Z,99033.53
2023-05-17T17:30:15.493Z,99025.47
2023-05-17T17:33:00.951Z,99028.06
2023-05-17T17:35:46.270Z,99030.44
2023-05-17T17:38:31.112Z,99028.34
2023-05-17T17:41:16.276Z,99035.63
2023-05-17T17:44:01.280Z,99029.16
2023-05-17T17:46:46.797Z,99028.88
2023-05-17T17:49:31.797Z,99030.19
2023-05-17T17:52:17.137Z,99031.47
2023-05-17T17:55:02.088Z,99038.22
2023-05-17T17:57:47.422Z,99040.28
2023-05-17T18:00:32.495Z,99036.66
2023-05-17T18:03:17.775Z,99036.41
2023-05-17T18:06:04.411Z,99033.56
2023-05-17T18:08:49.358Z,99034.59
2023-05-17T18:11:35.100Z,99030.94
2023-05-17T18:14:21.185Z,99037.97
2023-05-17T18:17:07.867Z,99034.09
2023-05-17T18:19:53.061Z,99030.94
2023-05-17T18:22:38.137Z,99031.72
2023-05-17T18:25:23.075Z,99033.03
2023-05-17T18:28:08.981Z,99036.69
2023-05-17T18:30:53.898Z,99031.50
2023-05-17T18:33:38.890Z,99033.28
2023-05-17T18:36:24.052Z,99035.09
2023-05-17T18:39:09.198Z,99041.31
2023-05-17T18:41:54.191Z,99037.97
2023-05-17T18:44:39.030Z,99038.72
2023-05-17T18:47:24.192Z,99047.56
2023-05-17T18:50:09.438Z,99045.47
2023-05-17T18:52:56.419Z,99043.66
2023-05-17T18:55:42.003Z,99040.06
2023-05-17T18:58:27.056Z,99048.34
2023-05-17T19:01:12.281Z,99048.59
2023-05-17T19:03:57.256Z,99057.16
2023-05-17T19:06:42.452Z,99039.78
2023-05-17T19:09:27.300Z,99048.88
2023-05-17T19:12:12.477Z,99046.00
2023-05-17T19:14:57.478Z,99053.03
2023-05-17T19:17:42.788Z,99055.63
2023-05-17T19:20:28.333Z,99053.03
2023-05-17T19:23:13.240Z,99055.63
2023-05-17T19:25:58.668Z,99057.16
2023-05-17T19:28:43.805Z,99055.34
2023-05-17T19:31:28.653Z,99060.03
2023-05-17T19:34:13.652Z,99059.25
2023-05-17T19:36:59.089Z,99056.38
2023-05-17T19:39:44.239Z,99056.38
2023-05-17T19:42:29.140Z,99060.53
2023-05-17T19:45:14.054Z,99060.81
2023-05-17T19:47:59.952Z,99059.00
2023-05-17T19:50:45.032Z,99056.66
2023-05-17T19:53:40.283Z,99064.94
2023-05-17T19:56:33.279Z,99057.44
2023-05-17T19:59:18.594Z,99063.91
2023-05-17T20:02:03.467Z,99070.94
2023-05-17T20:04:48.347Z,99068.31
2023-05-17T20:07:33.495Z,99064.94
2023-05-17T20:10:18.639Z,99069.38
2023-05-17T20:13:03.972Z,99071.97
2023-05-17T20:15:49.129Z,99068.59
2023-05-17T20:18:34.192Z,99066.50
2023-05-17T20:21:19.486Z,99066.25
2023-05-17T20:24:06.096Z,99072.50
2023-05-17T20:26:51.427Z,99071.44
2023-05-17T20:29:37.759Z,99075.59
2023-05-17T20:32:23.311Z,99071.44
2023-05-17T20:35:08.601Z,99078.72
2023-05-17T20:37:53.365Z,99076.38
2023-05-17T20:40:38.433Z,99086.50
2023-05-17T20:43:28.133Z,99077.16
2023-05-17T20:46:13.314Z,99077.16
2023-05-17T20:48:58.430Z,99083.91
2023-05-17T20:51:43.756Z,99084.41
2023-05-17T20:54:30.162Z,99081.31
2023-05-17T20:57:14.662Z,99089.09
2023-05-17T21:00:00.150Z,99087.53
2023-05-17T21:02:45.521Z,99082.34
2023-05-17T21:05:35.374Z,99083.91
2023-05-17T21:08:20.621Z,99086.78
2023-05-17T21:11:05.653Z,99086.50
2023-05-17T21:13:50.855Z,99084.94
2023-05-17T21:16:36.086Z,99090.91
2023-05-17T21:19:21.335Z,99089.09
2023-05-17T21:22:06.411Z,99088.53
2023-05-17T21:24:52.227Z,99090.91
2023-05-17T21:27:37.879Z,99091.41
2023-05-17T21:30:23.586Z,99098.69
2023-05-17T21:33:08.599Z,99094.81
2023-05-17T21:35:53.881Z,99097.66
2023-05-17T21:38:38.650Z,99095.31
2023-05-17T21:41:24.044Z,99097.16
2023-05-17T21:44:08.758Z,99095.59
2023-05-17T21:46:53.689Z,99100.00
2023-05-17T21:49:38.638Z,99093.50
2023-05-17T21:52:23.326Z,99101.06
2023-05-17T21:55:09.016Z,99105.72
2023-05-17T21:57:54.856Z,99097.69
2023-05-17T22:00:40.018Z,99101.06
2023-05-17T22:03:25.546Z,99104.94
2023-05-17T22:06:11.430Z,99100.53
2023-05-17T22:08:56.795Z,99099.25
2023-05-17T22:11:41.275Z,99102.34
2023-05-17T22:14:32.843Z,99101.03
2023-05-17T22:17:18.040Z,99104.66
2023-05-17T22:20:03.463Z,99107.81
2023-05-17T22:22:48.751Z,99101.31
2023-05-17T22:25:33.733Z,99101.81
2023-05-17T22:28:19.123Z,99104.16
2023-05-17T22:31:06.850Z,99106.75
2023-05-17T22:33:53.670Z,99102.59
2023-05-17T22:36:41.573Z,99100.00
2023-05-17T22:39:26.519Z,99093.25
2023-05-17T22:42:11.539Z,99108.03
2023-05-17T22:44:56.802Z,99112.22
2023-05-17T22:47:46.151Z,99101.03
2023-05-17T22:50:32.197Z,99094.81
2023-05-17T22:53:18.708Z,99108.03
2023-05-17T22:56:05.981Z,99103.63
2023-05-17T22:58:50.950Z,99112.22
2023-05-17T23:01:35.805Z,99108.59
2023-05-17T23:04:25.495Z,99103.38
2023-05-17T23:07:10.981Z,99114.53
2023-05-17T23:09:56.810Z,99110.91
2023-05-17T23:12:41.934Z,99113.00
2023-05-17T23:15:27.839Z,99110.41
2023-05-17T23:18:12.826Z,99114.03
2023-05-17T23:20:58.414Z,99115.84
2023-05-17T23:23:43.469Z,99116.38
2023-05-17T23:26:28.426Z,99109.59
2023-05-17T23:29:13.338Z,99114.81
2023-05-17T23:31:58.796Z,99110.41
2023-05-17T23:34:44.975Z,99111.41
2023-05-17T23:37:31.104Z,99102.59
2023-05-17T23:40:16.135Z,99107.78
2023-05-17T23:43:01.140Z,99112.47
2023-05-17T23:45:46.398Z,99111.94
2023-05-17T23:48:33.929Z,99113.00
2023-05-17T23:51:19.772Z,99114.81
2023-05-17T23:54:04.938Z,99109.88
2023-05-17T23:56:49.871Z,99109.88
2023-05-17T23:59:36.112Z,99112.47
